createdAt,value
2023-03-04T00:00:33.851Z,8.77
2023-03-04T00:01:30.484Z,9.13
2023-03-04T00:02:27.083Z,10.07
2023-03-04T00:03:23.748Z,10.75
2023-03-04T00:04:20.389Z,9.88
2023-03-04T00:05:17.157Z,9.27
2023-03-04T00:06:13.839Z,10.27
2023-03-04T00:07:10.762Z,11.68
2023-03-04T00:08:07.467Z,11.25
2023-03-04T00:09:04.782Z,10.77
2023-03-04T00:10:01.556Z,11.80
2023-03-04T00:10:58.452Z,11.07
2023-03-04T00:11:55.116Z,10.40
2023-03-04T00:12:51.781Z,9.73
2023-03-04T00:13:48.378Z,9.18
2023-03-04T00:14:45.034Z,9.52
2023-03-04T00:15:41.682Z,8.93
2023-03-04T00:16:38.390Z,8.82
2023-03-04T00:17:34.981Z,8.10
2023-03-04T00:18:31.601Z,8.30
2023-03-04T00:19:28.206Z,8.00
2023-03-04T00:20:24.859Z,8.85
2023-03-04T00:21:22.193Z,9.50
2023-03-04T00:22:18.822Z,9.75
2023-03-04T00:23:15.934Z,9.73
2023-03-04T00:24:12.540Z,9.73
2023-03-04T00:25:09.402Z,10.63
2023-03-04T00:26:05.964Z,11.20
2023-03-04T00:27:02.522Z,12.10
2023-03-04T00:27:59.757Z,11.23
2023-03-04T00:28:56.378Z,11.38
2023-03-04T00:29:53.010Z,11.80
2023-03-04T00:30:49.869Z,11.52
2023-03-04T00:31:46.525Z,11.27
2023-03-04T00:32:43.265Z,11.68
2023-03-04T00:33:40.489Z,10.57
2023-03-04T00:34:37.185Z,11.05
2023-03-04T00:35:33.906Z,10.48
2023-03-04T00:36:30.585Z,9.48
2023-03-04T00:37:27.164Z,9.13
2023-03-04T00:38:23.807Z,9.55
2023-03-04T00:39:20.444Z,9.15
2023-03-04T00:40:17.731Z,8.80
2023-03-04T00:41:14.372Z,8.63
2023-03-04T00:42:10.945Z,9.02
2023-03-04T00:43:07.556Z,8.77
2023-03-04T00:44:05.137Z,8.98
2023-03-04T00:45:01.850Z,9.40
2023-03-04T00:45:58.681Z,8.82
2023-03-04T00:46:55.325Z,9.18
2023-03-04T00:47:51.904Z,9.25
2023-03-04T00:48:48.489Z,9.50
2023-03-04T00:49:45.162Z,9.05
2023-03-04T00:50:42.340Z,9.05
2023-03-04T00:51:38.923Z,9.40
2023-03-04T00:52:35.517Z,9.38
2023-03-04T00:53:32.075Z,8.65
2023-03-04T00:54:28.728Z,8.23
2023-03-04T00:55:25.301Z,9.02
2023-03-04T00:56:21.938Z,8.48
2023-03-04T00:57:18.784Z,10.05
2023-03-04T00:58:15.511Z,8.98
2023-03-04T00:59:12.065Z,9.07
2023-03-04T01:00:09.564Z,8.55
2023-03-04T01:01:07.626Z,7.90
2023-03-04T01:02:04.512Z,7.70
2023-03-04T01:03:01.177Z,7.70
2023-03-04T01:03:57.805Z,8.20
2023-03-04T01:04:54.485Z,8.57
2023-03-04T01:05:51.017Z,8.40
2023-03-04T01:06:47.643Z,7.28
2023-03-04T01:07:44.734Z,7.03
2023-03-04T01:08:41.348Z,7.88
2023-03-04T01:09:37.992Z,8.00
2023-03-04T01:10:34.703Z,7.18
2023-03-04T01:11:31.396Z,8.13
2023-03-04T01:12:28.394Z,7.30
2023-03-04T01:13:25.035Z,7.20
2023-03-04T01:14:21.662Z,7.47
2023-03-04T01:15:18.530Z,7.68
2023-03-04T01:16:15.150Z,7.38
2023-03-04T01:17:12.634Z,6.60
2023-03-04T01:18:09.376Z,7.30
2023-03-04T01:19:05.981Z,7.30
2023-03-04T01:20:03.318Z,6.93
2023-03-04T01:21:00.100Z,8.15
2023-03-04T01:21:56.690Z,6.97
2023-03-04T01:22:53.291Z,7.63
2023-03-04T01:23:49.832Z,7.68
2023-03-04T01:24:46.640Z,7.13
2023-03-04T01:25:43.237Z,7.57
2023-03-04T01:26:39.809Z,7.25
2023-03-04T01:27:36.427Z,7.00
2023-03-04T01:28:36.008Z,7.47
2023-03-04T01:29:32.706Z,7.82
2023-03-04T01:30:29.293Z,7.28
2023-03-04T01:31:26.130Z,7.90
2023-03-04T01:32:22.938Z,7.57
2023-03-04T01:33:19.606Z,7.53
2023-03-04T01:34:18.124Z,8.38
2023-03-04T01:35:14.762Z,7.60
2023-03-04T01:36:11.703Z,7.45
2023-03-04T01:37:09.402Z,7.78
2023-03-04T01:38:06.078Z,8.25
2023-03-04T01:39:02.849Z,7.38
2023-03-04T01:39:59.689Z,8.00
2023-03-04T01:40:56.454Z,7.72
2023-03-04T01:41:53.093Z,8.25
2023-03-04T01:42:49.826Z,8.18
2023-03-04T01:43:46.486Z,8.00
2023-03-04T01:44:44.165Z,8.77
2023-03-04T01:45:40.779Z,8.30
2023-03-04T01:46:38.135Z,8.20
2023-03-04T01:47:36.143Z,7.82
2023-03-04T01:48:38.312Z,7.57
2023-03-04T01:49:35.113Z,8.13
2023-03-04T01:50:34.141Z,7.65
2023-03-04T01:51:30.825Z,7.40
2023-03-04T01:52:28.159Z,8.05
2023-03-04T01:53:27.426Z,6.78
2023-03-04T01:54:24.045Z,7.05
2023-03-04T01:55:22.275Z,7.50
2023-03-04T01:56:30.375Z,7.60
2023-03-04T01:57:27.396Z,7.47
2023-03-04T01:58:28.540Z,7.80
2023-03-04T01:59:27.356Z,7.57
2023-03-04T02:00:31.300Z,7.93
2023-03-04T02:01:27.966Z,7.28
2023-03-04T02:02:24.621Z,7.80
2023-03-04T02:03:22.407Z,8.10
2023-03-04T02:04:29.951Z,8.05
2023-03-04T02:05:28.402Z,7.53
2023-03-04T02:06:25.225Z,7.82
2023-03-04T02:07:21.820Z,7.28
2023-03-04T02:08:21.227Z,7.57
2023-03-04T02:09:18.421Z,7.85
2023-03-04T02:10:15.060Z,7.88
2023-03-04T02:11:11.646Z,7.72
2023-03-04T02:12:08.330Z,8.35
2023-03-04T02:13:05.579Z,8.23
2023-03-04T02:14:02.316Z,8.18
2023-03-04T02:14:58.965Z,7.90
2023-03-04T02:15:55.882Z,8.40
2023-03-04T02:16:52.663Z,7.85
2023-03-04T02:17:50.118Z,9.02
2023-03-04T02:18:46.799Z,9.18
2023-03-04T02:19:56.500Z,8.13
2023-03-04T02:21:10.159Z,10.05
2023-03-04T02:22:07.035Z,9.35
2023-03-04T02:23:10.710Z,9.98
2023-03-04T02:24:15.276Z,9.07
2023-03-04T02:25:19.683Z,9.55
2023-03-04T02:26:22.012Z,8.80
2023-03-04T02:27:20.432Z,9.68
2023-03-04T02:28:18.762Z,8.93
2023-03-04T02:29:17.341Z,7.82
2023-03-04T02:30:20.017Z,8.25
2023-03-04T02:31:24.822Z,8.20
2023-03-04T02:32:21.528Z,8.15
2023-03-04T02:33:19.438Z,6.95
2023-03-04T02:34:21.985Z,7.50
2023-03-04T02:36:16.619Z,6.78
2023-03-04T02:37:13.511Z,6.60
2023-03-04T02:38:12.221Z,6.65
2023-03-04T02:39:22.047Z,7.03
2023-03-04T02:40:27.196Z,6.78
2023-03-04T02:41:26.720Z,7.65
2023-03-04T02:42:23.345Z,6.57
2023-03-04T02:43:20.024Z,7.07
2023-03-04T02:44:22.907Z,6.93
2023-03-04T02:45:39.501Z,7.50
2023-03-04T02:46:36.126Z,7.68
2023-03-04T02:47:32.772Z,7.72
2023-03-04T02:48:29.394Z,6.85
2023-03-04T02:49:28.223Z,7.45
2023-03-04T02:50:26.234Z,7.32
2023-03-04T02:51:22.827Z,7.30
2023-03-04T02:52:22.361Z,7.10
2023-03-04T02:53:20.819Z,6.78
2023-03-04T02:54:20.314Z,6.47
2023-03-04T02:55:17.062Z,6.80
2023-03-04T02:56:13.657Z,6.55
2023-03-04T02:57:12.184Z,5.95
2023-03-04T02:58:08.789Z,6.40
2023-03-04T02:59:05.390Z,7.03
2023-03-04T03:00:02.027Z,6.18
2023-03-04T03:00:58.757Z,6.95
2023-03-04T03:01:55.960Z,6.97
2023-03-04T03:02:52.798Z,6.88
2023-03-04T03:03:49.416Z,6.70
2023-03-04T03:04:46.246Z,6.03
2023-03-04T03:05:42.913Z,6.10
2023-03-04T03:06:40.355Z,6.68
2023-03-04T03:07:38.246Z,7.18
2023-03-04T03:08:34.853Z,6.90
2023-03-04T03:09:31.495Z,6.90
2023-03-04T03:10:28.342Z,7.22
2023-03-04T03:11:26.673Z,6.65
2023-03-04T03:12:23.336Z,7.50
2023-03-04T03:13:19.964Z,6.90
2023-03-04T03:14:16.746Z,7.18
2023-03-04T03:15:13.701Z,6.78
2023-03-04T03:16:10.406Z,6.57
2023-03-04T03:17:07.078Z,6.97
2023-03-04T03:18:03.703Z,6.20
2023-03-04T03:19:00.454Z,7.20
2023-03-04T03:19:57.050Z,7.05
2023-03-04T03:20:53.640Z,6.72
2023-03-04T03:21:50.400Z,6.80
2023-03-04T03:22:47.580Z,7.28
2023-03-04T03:23:44.269Z,7.30
2023-03-04T03:24:40.872Z,7.63
2023-03-04T03:25:37.599Z,7.53
2023-03-04T03:26:34.246Z,7.65
2023-03-04T03:27:30.834Z,7.50
2023-03-04T03:28:27.563Z,7.38
2023-03-04T03:29:24.175Z,8.18
2023-03-04T03:30:21.160Z,8.27
2023-03-04T03:31:18.691Z,8.82
2023-03-04T03:32:15.372Z,8.57
2023-03-04T03:33:11.953Z,8.65
2023-03-04T03:34:08.817Z,8.80
2023-03-04T03:35:05.837Z,9.65
2023-03-04T03:36:02.821Z,9.32
2023-03-04T03:36:59.566Z,9.45
2023-03-04T03:37:56.181Z,9.60
2023-03-04T03:38:52.757Z,9.40
2023-03-04T03:39:49.414Z,8.60
2023-03-04T03:40:46.031Z,9.60
2023-03-04T03:41:42.779Z,9.98
2023-03-04T03:42:39.348Z,10.45
2023-03-04T03:43:36.015Z,11.07
2023-03-04T03:44:32.638Z,9.93
2023-03-04T03:45:29.267Z,9.30
2023-03-04T03:46:25.914Z,9.82
2023-03-04T03:47:23.772Z,10.05
2023-03-04T03:48:20.383Z,10.57
2023-03-04T03:49:17.317Z,10.77
2023-03-04T03:50:14.158Z,10.40
2023-03-04T03:51:10.916Z,11.45
2023-03-04T03:52:08.473Z,11.60
2023-03-04T03:53:05.372Z,11.15
2023-03-04T03:54:02.034Z,11.40
2023-03-04T03:55:02.009Z,10.80
2023-03-04T03:55:59.610Z,13.25
2023-03-04T03:56:56.308Z,10.80
2023-03-04T03:57:52.947Z,11.45
2023-03-04T03:58:49.558Z,11.65
2023-03-04T03:59:46.141Z,12.02
2023-03-04T04:00:42.754Z,11.27
2023-03-04T04:01:39.498Z,11.63
2023-03-04T04:02:36.254Z,10.77
2023-03-04T04:03:32.864Z,12.05
2023-03-04T04:04:29.622Z,11.50
2023-03-04T04:05:26.752Z,10.85
2023-03-04T04:06:23.437Z,11.55
2023-03-04T04:07:20.218Z,11.43
2023-03-04T04:08:17.964Z,10.65
2023-03-04T04:09:14.550Z,11.55
2023-03-04T04:10:11.726Z,11.55
2023-03-04T04:11:12.834Z,12.13
2023-03-04T04:12:09.652Z,12.13
2023-03-04T04:13:06.189Z,11.48
2023-03-04T04:14:02.876Z,12.88
2023-03-04T04:14:59.546Z,11.82
2023-03-04T04:15:56.174Z,12.05
2023-03-04T04:16:53.003Z,11.30
2023-03-04T04:17:49.586Z,11.32
2023-03-04T04:18:46.151Z,11.30
2023-03-04T04:19:42.934Z,10.77
2023-03-04T04:20:39.503Z,10.15
2023-03-04T04:21:36.176Z,10.00
2023-03-04T04:22:32.900Z,9.98
2023-03-04T04:23:29.498Z,10.20
2023-03-04T04:24:26.274Z,9.57
2023-03-04T04:25:22.891Z,9.75
2023-03-04T04:26:19.470Z,10.25
2023-03-04T04:27:16.156Z,10.57
2023-03-04T04:28:12.701Z,11.07
2023-03-04T04:29:12.983Z,10.57
2023-03-04T04:30:10.470Z,10.93
2023-03-04T04:31:09.247Z,10.40
2023-03-04T04:32:06.287Z,10.02
2023-03-04T04:33:04.852Z,10.43
2023-03-04T04:34:01.812Z,9.68
2023-03-04T04:34:58.523Z,9.23
2023-03-04T04:35:55.132Z,10.10
2023-03-04T04:36:51.913Z,9.65
2023-03-04T04:37:48.507Z,9.60
2023-03-04T04:38:45.835Z,8.95
2023-03-04T04:39:42.355Z,8.98
2023-03-04T04:40:38.940Z,10.20
2023-03-04T04:41:39.418Z,9.85
2023-03-04T04:42:36.047Z,9.40
2023-03-04T04:43:32.666Z,9.20
2023-03-04T04:44:29.305Z,9.02
2023-03-04T04:45:25.956Z,9.23
2023-03-04T04:46:22.667Z,9.48
2023-03-04T04:47:19.415Z,9.52
2023-03-04T04:48:16.005Z,9.82
2023-03-04T04:49:12.859Z,9.27
2023-03-04T04:50:10.216Z,10.10
2023-03-04T04:51:06.974Z,11.30
2023-03-04T04:52:03.700Z,10.60
2023-03-04T04:53:00.514Z,10.93
2023-03-04T04:53:57.244Z,10.48
2023-03-04T04:54:53.893Z,10.15
2023-03-04T04:55:50.468Z,10.88
2023-03-04T04:56:47.170Z,9.73
2023-03-04T04:57:45.960Z,10.10
2023-03-04T04:58:43.851Z,9.98
2023-03-04T04:59:40.486Z,10.50
2023-03-04T05:00:37.079Z,10.30
2023-03-04T05:01:33.813Z,10.23
2023-03-04T05:02:31.315Z,11.80
2023-03-04T05:03:27.979Z,11.27
2023-03-04T05:04:24.721Z,10.85
2023-03-04T05:05:21.344Z,11.07
2023-03-04T05:06:17.942Z,12.30
2023-03-04T05:07:14.646Z,12.30
2023-03-04T05:08:11.212Z,12.40
2023-03-04T05:09:08.136Z,11.13
2023-03-04T05:10:05.688Z,10.65
2023-03-04T05:11:03.253Z,9.75
2023-03-04T05:11:59.851Z,10.25
2023-03-04T05:12:56.428Z,9.35
2023-03-04T05:13:53.054Z,8.77
2023-03-04T05:14:49.676Z,9.13
2023-03-04T05:15:47.126Z,8.73
2023-03-04T05:16:43.714Z,9.35
2023-03-04T05:17:40.288Z,10.30
2023-03-04T05:18:37.427Z,9.68
2023-03-04T05:19:33.987Z,9.40
2023-03-04T05:20:30.556Z,9.07
2023-03-04T05:21:27.111Z,9.60
2023-03-04T05:22:23.726Z,8.57
2023-03-04T05:23:21.039Z,9.60
2023-03-04T05:24:17.688Z,8.23
2023-03-04T05:25:14.284Z,8.82
2023-03-04T05:26:15.045Z,8.93
2023-03-04T05:27:11.754Z,8.85
2023-03-04T05:28:12.491Z,8.98
2023-03-04T05:29:09.081Z,8.98
2023-03-04T05:30:06.277Z,9.35
2023-03-04T05:31:03.295Z,9.57
2023-03-04T05:31:59.919Z,9.10
2023-03-04T05:32:56.593Z,9.55
2023-03-04T05:33:53.224Z,9.73
2023-03-04T05:34:49.934Z,11.25
2023-03-04T05:35:48.948Z,11.50
2023-03-04T05:36:45.721Z,9.95
2023-03-04T05:37:42.268Z,10.52
2023-03-04T05:38:38.871Z,10.70
2023-03-04T05:39:35.530Z,10.50
2023-03-04T05:40:32.722Z,10.07
2023-03-04T05:41:29.487Z,9.73
2023-03-04T05:42:26.131Z,10.63
2023-03-04T05:43:23.490Z,10.90
2023-03-04T05:44:20.162Z,10.20
2023-03-04T05:45:16.910Z,11.60
2023-03-04T05:46:15.948Z,10.40
2023-03-04T05:47:14.961Z,10.75
2023-03-04T05:48:11.609Z,10.90
2023-03-04T05:49:08.206Z,10.93
2023-03-04T05:50:05.108Z,11.27
2023-03-04T05:51:02.423Z,11.48
2023-03-04T05:52:01.944Z,11.68
2023-03-04T05:52:58.580Z,11.27
2023-03-04T05:53:55.250Z,12.20
2023-03-04T05:54:51.871Z,11.73
2023-03-04T05:55:49.269Z,12.50
2023-03-04T05:56:45.914Z,12.45
2023-03-04T05:57:42.956Z,11.73
2023-03-04T05:58:39.874Z,10.88
2023-03-04T05:59:36.454Z,11.82
2023-03-04T06:00:33.133Z,10.88
2023-03-04T06:01:31.391Z,14.15
2023-03-04T06:02:28.034Z,14.35
2023-03-04T06:03:24.688Z,14.68
2023-03-04T06:04:21.327Z,16.13
2023-03-04T06:05:21.533Z,17.52
2023-03-04T06:06:18.233Z,17.23
2023-03-04T06:07:14.882Z,16.45
2023-03-04T06:08:14.629Z,17.45
2023-03-04T06:09:11.222Z,15.73
2023-03-04T06:10:08.966Z,14.93
2023-03-04T06:11:05.924Z,15.20
2023-03-04T06:12:02.494Z,15.30
2023-03-04T06:12:59.064Z,15.43
2023-03-04T06:13:55.962Z,16.92
2023-03-04T06:14:52.560Z,19.15
2023-03-04T06:15:54.965Z,18.83
2023-03-04T06:16:51.805Z,18.02
2023-03-04T06:17:48.438Z,21.25
2023-03-04T06:18:45.064Z,21.08
2023-03-04T06:19:44.611Z,21.15
2023-03-04T06:20:41.444Z,21.23
2023-03-04T06:21:38.141Z,19.45
2023-03-04T06:22:35.041Z,19.83
2023-03-04T06:23:32.015Z,19.08
2023-03-04T06:24:28.712Z,20.83
2023-03-04T06:25:25.822Z,18.77
2023-03-04T06:26:22.563Z,19.45
2023-03-04T06:27:19.163Z,20.90
2023-03-04T06:28:15.861Z,22.27
2023-03-04T06:29:12.859Z,22.02
2023-03-04T06:30:10.465Z,22.20
2023-03-04T06:31:07.596Z,21.33
2023-03-04T06:32:04.459Z,22.25
2023-03-04T06:33:01.158Z,23.00
2023-03-04T06:33:57.852Z,23.77
2023-03-04T06:34:54.486Z,21.70
2023-03-04T06:35:55.586Z,23.02
2023-03-04T06:36:52.315Z,23.17
2023-03-04T06:37:49.237Z,24.23
2023-03-04T06:38:45.954Z,26.95
2023-03-04T06:39:42.589Z,25.75
2023-03-04T06:40:39.385Z,26.85
2023-03-04T06:41:36.525Z,25.88
2023-03-04T06:42:33.918Z,26.27
2023-03-04T06:43:30.454Z,26.58
2023-03-04T06:44:27.098Z,25.60
2023-03-04T06:45:23.747Z,24.13
2023-03-04T06:46:20.633Z,22.33
2023-03-04T06:47:18.865Z,20.80
2023-03-04T06:48:15.492Z,19.10
2023-03-04T06:49:12.321Z,20.05
2023-03-04T06:50:09.830Z,20.77
2023-03-04T06:51:09.057Z,20.27
2023-03-04T06:52:05.716Z,19.77
2023-03-04T06:53:02.329Z,20.15
2023-03-04T06:53:59.068Z,18.75
2023-03-04T06:54:55.820Z,20.35
2023-03-04T06:55:52.389Z,19.52
2023-03-04T06:56:49.027Z,18.27
2023-03-04T06:57:48.395Z,19.33
2023-03-04T06:58:45.694Z,20.33
2023-03-04T06:59:42.370Z,20.50
2023-03-04T07:00:39.091Z,21.67
2023-03-04T07:01:36.676Z,22.23
2023-03-04T07:02:33.348Z,24.67
2023-03-04T07:03:29.895Z,26.63
2023-03-04T07:04:26.708Z,26.38
2023-03-04T07:05:23.305Z,22.88
2023-03-04T07:06:22.063Z,24.45
2023-03-04T07:07:18.696Z,22.45
2023-03-04T07:08:15.603Z,21.13
2023-03-04T07:09:12.177Z,19.13
2023-03-04T07:10:10.317Z,19.73
2023-03-04T07:11:07.383Z,19.73
2023-03-04T07:12:04.116Z,21.02
2023-03-04T07:13:01.532Z,20.77
2023-03-04T07:13:58.325Z,19.45
2023-03-04T07:14:54.970Z,20.88
2023-03-04T07:15:51.609Z,20.38
2023-03-04T07:16:48.358Z,20.15
2023-03-04T07:17:45.140Z,20.23
2023-03-04T07:18:41.896Z,20.38
2023-03-04T07:19:38.625Z,20.23
2023-03-04T07:20:35.234Z,19.52
2023-03-04T07:21:31.852Z,18.75
2023-03-04T07:22:28.419Z,16.73
2023-03-04T07:23:25.266Z,17.70
2023-03-04T07:24:21.809Z,17.38
2023-03-04T07:25:18.406Z,22.98
2023-03-04T07:26:15.178Z,25.00
2023-03-04T07:27:11.729Z,24.45
2023-03-04T07:28:08.305Z,22.83
2023-03-04T07:29:05.538Z,20.92
2023-03-04T07:30:02.426Z,23.15
2023-03-04T07:31:12.115Z,23.08
2023-03-04T07:32:09.892Z,22.92
2023-03-04T07:33:06.579Z,23.65
2023-03-04T07:34:08.609Z,21.45
2023-03-04T07:35:06.018Z,21.92
2023-03-04T07:36:02.670Z,21.10
2023-03-04T07:36:59.238Z,22.00
2023-03-04T07:37:55.816Z,21.20
2023-03-04T07:38:54.842Z,22.63
2023-03-04T07:39:51.646Z,21.02
2023-03-04T07:40:58.169Z,23.40
2023-03-04T07:41:54.808Z,20.17
2023-03-04T07:42:52.847Z,17.45
2023-03-04T07:43:49.637Z,17.67
2023-03-04T07:44:46.280Z,17.05
2023-03-04T07:45:42.904Z,16.25
2023-03-04T07:46:39.657Z,16.38
2023-03-04T07:47:36.302Z,16.55
2023-03-04T07:48:32.951Z,15.93
2023-03-04T07:49:29.520Z,14.07
2023-03-04T07:50:26.075Z,13.90
2023-03-04T07:51:25.013Z,13.52
2023-03-04T07:52:21.775Z,13.93
2023-03-04T07:53:18.535Z,14.32
2023-03-04T07:54:15.302Z,13.30
2023-03-04T07:55:14.873Z,12.68
2023-03-04T07:56:14.087Z,12.32
2023-03-04T07:57:10.817Z,10.80
2023-03-04T07:58:07.507Z,9.95
2023-03-04T07:59:04.430Z,9.50
2023-03-04T08:00:01.930Z,8.70
2023-03-04T08:00:58.777Z,9.45
2023-03-04T08:01:55.420Z,9.77
2023-03-04T08:02:52.170Z,9.98
2023-03-04T08:03:49.490Z,11.80
2023-03-04T08:04:46.142Z,12.20
2023-03-04T08:05:43.443Z,12.20
2023-03-04T08:06:41.802Z,12.38
2023-03-04T08:07:38.460Z,11.85
2023-03-04T08:08:35.866Z,11.32
2023-03-04T08:09:32.571Z,9.60
2023-03-04T08:10:29.153Z,9.93
2023-03-04T08:11:26.760Z,8.52
2023-03-04T08:12:24.976Z,8.50
2023-03-04T08:13:21.627Z,8.75
2023-03-04T08:14:18.540Z,9.15
2023-03-04T08:15:15.247Z,7.93
2023-03-04T08:16:16.641Z,8.27
2023-03-04T08:17:14.841Z,10.57
2023-03-04T08:18:12.694Z,9.15
2023-03-04T08:19:09.495Z,10.52
2023-03-04T08:20:06.679Z,11.25
2023-03-04T08:21:08.988Z,11.15
2023-03-04T08:22:05.618Z,10.68
2023-03-04T08:23:02.243Z,10.32
2023-03-04T08:24:02.540Z,9.73
2023-03-04T08:24:59.127Z,10.25
2023-03-04T08:25:55.811Z,10.25
2023-03-04T08:26:52.368Z,9.88
2023-03-04T08:27:48.942Z,10.55
2023-03-04T08:28:46.010Z,9.70
2023-03-04T08:29:42.563Z,10.73
2023-03-04T08:30:40.969Z,10.30
2023-03-04T08:31:38.326Z,9.90
2023-03-04T08:32:35.226Z,9.50
2023-03-04T08:33:32.621Z,9.98
2023-03-04T08:34:29.490Z,10.52
2023-03-04T08:35:26.124Z,9.90
2023-03-04T08:36:22.704Z,9.88
2023-03-04T08:37:19.357Z,10.43
2023-03-04T08:38:15.976Z,10.45
2023-03-04T08:39:14.827Z,10.10
2023-03-04T08:40:14.492Z,10.82
2023-03-04T08:41:11.199Z,9.35
2023-03-04T08:42:07.821Z,10.07
2023-03-04T08:43:04.496Z,10.20
2023-03-04T08:44:01.873Z,9.82
2023-03-04T08:44:58.566Z,10.65
2023-03-04T08:45:55.634Z,10.27
2023-03-04T08:46:52.358Z,9.90
2023-03-04T08:47:49.021Z,9.23
2023-03-04T08:48:45.604Z,10.05
2023-03-04T08:49:42.346Z,9.80
2023-03-04T08:50:39.028Z,9.55
2023-03-04T08:51:38.685Z,9.90
2023-03-04T08:52:35.275Z,10.23
2023-03-04T08:53:31.890Z,11.13
2023-03-04T08:54:28.502Z,9.60
2023-03-04T08:55:25.062Z,10.55
2023-03-04T08:56:21.735Z,10.98
2023-03-04T08:57:18.385Z,10.20
2023-03-04T08:58:15.132Z,10.02
2023-03-04T08:59:11.984Z,10.35
2023-03-04T09:00:10.747Z,10.57
2023-03-04T09:01:13.047Z,9.90
2023-03-04T09:02:10.490Z,10.20
2023-03-04T09:03:07.189Z,9.90
2023-03-04T09:04:03.976Z,10.13
2023-03-04T09:05:00.502Z,9.93
2023-03-04T09:05:57.214Z,9.48
2023-03-04T09:06:54.098Z,9.32
2023-03-04T09:07:51.018Z,9.73
2023-03-04T09:08:48.891Z,11.00
2023-03-04T09:09:45.487Z,11.20
2023-03-04T09:10:42.442Z,10.43
2023-03-04T09:11:39.057Z,10.45
2023-03-04T09:12:35.785Z,10.95
2023-03-04T09:13:32.777Z,10.00
2023-03-04T09:14:29.417Z,10.73
2023-03-04T09:15:25.979Z,11.02
2023-03-04T09:16:22.761Z,10.95
2023-03-04T09:17:19.467Z,11.85
2023-03-04T09:18:16.917Z,10.52
2023-03-04T09:19:13.721Z,10.48
2023-03-04T09:20:13.205Z,11.35
2023-03-04T09:21:10.811Z,10.23
2023-03-04T09:22:07.504Z,11.27
2023-03-04T09:23:04.269Z,11.73
2023-03-04T09:24:00.957Z,11.48
2023-03-04T09:24:57.643Z,11.20
2023-03-04T09:25:54.327Z,10.70
2023-03-04T09:26:52.249Z,10.77
2023-03-04T09:27:48.940Z,11.80
2023-03-04T09:28:45.621Z,11.23
2023-03-04T09:29:43.325Z,11.43
2023-03-04T09:30:40.300Z,10.88
2023-03-04T09:31:37.007Z,10.75
2023-03-04T09:32:34.870Z,11.10
2023-03-04T09:33:31.494Z,10.93
2023-03-04T09:34:28.193Z,12.07
2023-03-04T09:35:25.552Z,11.90
2023-03-04T09:36:22.783Z,11.38
2023-03-04T09:37:19.510Z,12.23
2023-03-04T09:38:16.059Z,11.80
2023-03-04T09:39:12.980Z,12.00
2023-03-04T09:40:16.239Z,12.95
2023-03-04T09:41:18.817Z,11.65
2023-03-04T09:43:25.080Z,12.18
2023-03-04T09:44:29.829Z,12.45
2023-03-04T09:45:36.971Z,12.07
2023-03-04T09:46:38.597Z,11.98
2023-03-04T09:47:37.671Z,10.45
2023-03-04T09:48:44.466Z,11.00
2023-03-04T09:49:43.882Z,11.50
2023-03-04T09:50:55.265Z,11.55
2023-03-04T09:51:57.218Z,11.27
2023-03-04T09:53:17.329Z,12.10
2023-03-04T09:54:16.734Z,11.68
2023-03-04T09:55:37.547Z,10.85
2023-03-04T09:56:38.470Z,10.60
2023-03-04T09:57:41.343Z,10.73
2023-03-04T09:58:53.010Z,10.32
2023-03-04T10:00:13.138Z,10.95
2023-03-04T10:01:26.634Z,12.23
2023-03-04T10:02:43.180Z,10.23
2023-03-04T10:03:48.457Z,11.30
2023-03-04T10:04:50.188Z,11.18
2023-03-04T10:05:53.345Z,9.50
2023-03-04T10:06:54.542Z,10.57
2023-03-04T10:08:24.187Z,10.43
2023-03-04T10:09:28.566Z,13.80
2023-03-04T10:10:33.510Z,13.07
2023-03-04T10:11:33.104Z,13.63
2023-03-04T10:12:33.052Z,14.10
2023-03-04T10:13:41.802Z,15.50
2023-03-04T10:14:52.082Z,14.63
2023-03-04T10:15:51.328Z,14.20
2023-03-04T10:17:00.916Z,15.15
2023-03-04T10:18:11.572Z,13.52
2023-03-04T10:19:14.423Z,14.93
2023-03-04T10:20:23.702Z,15.43
2023-03-04T10:21:27.066Z,13.68
2023-03-04T10:22:35.234Z,13.98
2023-03-04T10:23:34.851Z,15.02
2023-03-04T10:24:31.629Z,13.93
2023-03-04T10:25:31.278Z,13.95
2023-03-04T10:26:33.160Z,13.70
2023-03-04T10:27:31.639Z,15.27
2023-03-04T10:28:30.438Z,11.93
2023-03-04T10:29:30.198Z,12.70
2023-03-04T10:30:32.254Z,12.70
2023-03-04T10:31:37.425Z,13.90
2023-03-04T10:32:34.222Z,12.88
2023-03-04T10:33:40.504Z,13.48
2023-03-04T10:34:37.190Z,12.23
2023-03-04T10:35:36.752Z,11.77
2023-03-04T10:37:09.784Z,11.20
2023-03-04T10:38:07.126Z,10.48
2023-03-04T10:39:13.387Z,11.52
2023-03-04T10:40:22.454Z,11.27
2023-03-04T10:41:26.094Z,11.00
2023-03-04T10:42:29.800Z,11.10
2023-03-04T10:43:26.918Z,11.48
2023-03-04T10:44:24.675Z,11.30
2023-03-04T10:45:25.361Z,11.80
2023-03-04T10:46:24.344Z,11.60
2023-03-04T10:47:25.449Z,11.45
2023-03-04T10:48:30.181Z,10.95
2023-03-04T10:49:30.173Z,11.25
2023-03-04T10:50:28.830Z,11.73
2023-03-04T10:51:30.508Z,11.73
2023-03-04T10:52:41.389Z,11.85
2023-03-04T10:53:41.113Z,11.38
2023-03-04T10:54:54.166Z,11.48
2023-03-04T10:55:50.815Z,12.90
2023-03-04T10:57:03.454Z,12.05
2023-03-04T10:58:06.395Z,11.43
2023-03-04T10:59:33.640Z,12.02
2023-03-04T11:00:33.525Z,12.98
2023-03-04T11:01:30.658Z,11.50
2023-03-04T11:02:36.259Z,11.10
2023-03-04T11:03:38.868Z,13.00
2023-03-04T11:04:35.483Z,11.88
2023-03-04T11:05:32.858Z,12.18
2023-03-04T11:06:31.431Z,13.13
2023-03-04T11:07:28.078Z,12.50
2023-03-04T11:08:24.737Z,12.27
2023-03-04T11:09:24.559Z,11.73
2023-03-04T11:10:22.662Z,12.20
2023-03-04T11:11:42.945Z,12.73
2023-03-04T11:12:39.487Z,11.90
2023-03-04T11:13:36.214Z,12.88
2023-03-04T11:14:39.776Z,12.73
2023-03-04T11:15:53.800Z,11.68
2023-03-04T11:17:00.305Z,11.82
2023-03-04T11:18:06.640Z,11.88
2023-03-04T11:19:11.374Z,11.30
2023-03-04T11:20:32.510Z,11.63
2023-03-04T11:21:31.993Z,12.27
2023-03-04T11:22:31.489Z,12.80
2023-03-04T11:23:48.072Z,12.38
2023-03-04T11:24:56.725Z,10.30
2023-03-04T11:26:01.363Z,10.13
2023-03-04T11:27:15.773Z,11.13
2023-03-04T11:28:22.415Z,10.63
2023-03-04T11:29:27.148Z,11.07
2023-03-04T11:30:38.267Z,10.40
2023-03-04T11:31:42.536Z,10.50
2023-03-04T11:32:43.761Z,9.88
2023-03-04T11:33:49.061Z,10.88
2023-03-04T11:34:58.636Z,11.23
2023-03-04T11:36:08.929Z,11.05
2023-03-04T11:37:21.676Z,10.27
2023-03-04T11:38:20.774Z,11.13
2023-03-04T11:39:25.051Z,10.95
2023-03-04T11:40:47.882Z,12.07
2023-03-04T11:41:58.480Z,10.80
2023-03-04T11:43:30.574Z,11.02
2023-03-04T11:44:27.176Z,11.27
2023-03-04T11:45:39.577Z,11.35
2023-03-04T11:46:39.254Z,11.77
2023-03-04T11:47:47.817Z,11.85
2023-03-04T11:49:03.380Z,11.23
2023-03-04T11:49:59.926Z,11.38
2023-03-04T11:52:01.033Z,11.07
2023-03-04T11:53:19.188Z,10.55
2023-03-04T11:54:21.836Z,11.32
2023-03-04T11:56:49.545Z,10.63
2023-03-04T11:58:16.406Z,11.43
2023-03-04T11:59:29.421Z,11.55
2023-03-04T12:00:32.070Z,11.93
2023-03-04T12:01:47.544Z,11.40
2023-03-04T12:03:29.219Z,11.57
2023-03-04T12:04:54.042Z,10.45
2023-03-04T12:05:58.116Z,11.55
2023-03-04T12:06:57.504Z,11.23
2023-03-04T12:08:18.536Z,11.00
2023-03-04T12:09:51.890Z,11.38
2023-03-04T12:11:27.456Z,11.20
2023-03-04T12:12:27.261Z,10.93
2023-03-04T12:13:37.545Z,11.70
2023-03-04T12:14:46.505Z,11.20
2023-03-04T12:16:12.396Z,12.05
2023-03-04T12:17:30.630Z,12.07
2023-03-04T12:18:55.823Z,13.68
2023-03-04T12:20:14.329Z,13.77
2023-03-04T12:21:21.783Z,12.90
2023-03-04T12:22:42.338Z,12.82
2023-03-04T12:23:44.771Z,13.38
2023-03-04T12:26:35.250Z,13.38
2023-03-04T12:27:40.280Z,13.15
2023-03-04T12:28:58.129Z,14.00
2023-03-04T12:30:07.968Z,11.98
2023-03-04T12:31:17.941Z,11.35
2023-03-04T12:32:48.318Z,12.85
2023-03-04T12:34:09.882Z,13.10
2023-03-04T12:35:27.664Z,12.98
2023-03-04T12:37:08.889Z,13.73
2023-03-04T12:38:43.397Z,15.50
2023-03-04T12:39:48.867Z,14.60
2023-03-04T12:40:52.321Z,13.95
2023-03-04T12:42:07.209Z,15.73
2023-03-04T12:43:18.105Z,15.32
2023-03-04T12:44:20.340Z,14.63
2023-03-04T12:45:17.095Z,15.63
2023-03-04T12:46:27.603Z,14.60
2023-03-04T12:47:37.722Z,15.38
2023-03-04T12:48:42.671Z,15.40
2023-03-04T12:50:13.632Z,15.32
2023-03-04T12:51:56.824Z,16.17
2023-03-04T12:53:06.503Z,15.77
2023-03-04T12:54:39.250Z,16.10
2023-03-04T12:55:39.228Z,14.63
2023-03-04T12:56:48.820Z,17.63
2023-03-04T12:57:46.360Z,17.23
2023-03-04T12:58:43.274Z,17.85
2023-03-04T13:00:10.727Z,17.33
2023-03-04T13:01:18.925Z,16.63
2023-03-04T13:02:25.997Z,15.85
2023-03-04T13:03:40.268Z,16.10
2023-03-04T13:05:01.303Z,14.90
2023-03-04T13:06:31.229Z,16.73
2023-03-04T13:08:09.876Z,16.02